Time;durP1;ratioP1;P1;durP2;ratioP2;P2;SDS_P1;SDS_P2;PMS_P1;PMS_P2;Temp;Humidity;BMP_temperature;BMP_pressure;BME280_temperature;BME280_humidity;BME280_pressure;Samples;Min_cycle;Max_cycle;Signal;HPM_P1;HPM_P2
2022/07/11 00:00:24;;;;;;;0.60;0.10;;;20.20;97.90;;;;;;5053761;28;20029;-72
2022/07/11 00:02:52;;;;;;;0.40;0.10;;;19.70;98.30;;;;;;5038925;28;20399;-74
2022/07/11 00:05:20;;;;;;;2.20;0.10;;;19.00;99.10;;;;;;5042809;28;20373;-76
2022/07/11 00:07:47;;;;;;;0.63;0.10;;;18.20;99.90;;;;;;5051256;28;20107;-72
2022/07/11 00:10:14;;;;;;;0.73;0.10;;;17.70;99.90;;;;;;5035290;28;20418;-75
2022/07/11 00:12:42;;;;;;;1.52;0.10;;;17.20;99.90;;;;;;5038767;28;20032;-74
2022/07/11 00:15:09;;;;;;;0.52;0.10;;;16.80;99.90;;;;;;5058549;28;20434;-74
2022/07/11 00:17:37;;;;;;;0.47;0.10;;;16.40;99.90;;;;;;5041714;28;20022;-74
2022/07/11 00:20:04;;;;;;;0.95;0.10;;;16.20;99.90;;;;;;5035892;28;20033;-73
2022/07/11 00:22:32;;;;;;;0.82;0.10;;;16.60;99.90;;;;;;5031807;28;20491;-73
2022/07/11 00:24:59;;;;;;;0.00;0.00;;;17.10;99.90;;;;;;5031773;28;20402;-73
2022/07/11 00:27:26;;;;;;;0.40;0.10;;;17.80;99.90;;;;;;5031816;28;20043;-74
2022/07/11 00:29:54;;;;;;;0.45;0.05;;;18.70;99.90;;;;;;5036347;28;20036;-74
2022/07/11 00:32:21;;;;;;;1.13;0.10;;;19.70;99.90;;;;;;5031236;28;20136;-73
2022/07/11 00:34:48;;;;;;;0.00;0.00;;;20.80;98.00;;;;;;5033544;28;20115;-74
2022/07/11 00:37:16;;;;;;;0.80;0.20;;;21.80;97.10;;;;;;5031891;28;20032;-76
2022/07/11 00:39:43;;;;;;;2.17;0.20;;;22.40;95.70;;;;;;5037666;28;20033;-74
2022/07/11 00:42:11;;;;;;;1.55;0.13;;;22.50;95.60;;;;;;5036022;28;20073;-74
2022/07/11 00:44:38;;;;;;;0.10;0.00;;;23.10;94.90;;;;;;5042278;28;20029;-75
2022/07/11 00:47:05;;;;;;;0.70;0.20;;;23.60;93.80;;;;;;5030611;28;20501;-74
2022/07/11 00:49:33;;;;;;;1.92;0.32;;;24.10;92.90;;;;;;5041357;28;20051;-74
2022/07/11 00:52:00;;;;;;;0.30;0.10;;;24.30;92.50;;;;;;5031481;28;20021;-75
2022/07/11 00:54:28;;;;;;;2.03;0.20;;;24.30;92.50;;;;;;5032205;28;20037;-75
2022/07/11 00:56:56;;;;;;;0.40;0.17;;;24.40;91.90;;;;;;5054050;28;20037;-74
2022/07/11 00:59:23;;;;;;;1.35;0.10;;;24.60;92.40;;;;;;5064913;28;20020;-74
2022/07/11 01:01:50;;;;;;;0.38;0.08;;;24.70;92.10;;;;;;5035294;28;20111;-74
2022/07/11 01:04:18;;;;;;;1.83;0.30;;;25.00;91.10;;;;;;5034612;28;20029;-72
2022/07/11 01:06:45;;;;;;;0.15;0.10;;;25.00;90.90;;;;;;5031311;28;20166;-73
2022/07/11 01:09:12;;;;;;;1.85;0.60;;;24.80;91.10;;;;;;5039921;28;20402;-73
2022/07/11 01:11:40;;;;;;;0.40;0.10;;;24.30;90.80;;;;;;5031396;28;20095;-72
2022/07/11 01:14:07;;;;;;;0.70;0.30;;;23.20;92.10;;;;;;5037531;28;20515;-75
2022/07/11 01:16:34;;;;;;;1.65;0.20;;;22.20;92.80;;;;;;5040694;28;20044;-73
2022/07/11 01:19:02;;;;;;;2.13;0.30;;;21.40;93.10;;;;;;5028948;28;20517;-73
2022/07/11 01:21:52;;;;;;;0.50;0.15;;;20.80;94.60;;;;;;5027449;28;20737;-73
2022/07/11 01:24:19;;;;;;;0.20;0.10;;;20.80;95.70;;;;;;5031049;28;20036;-73
2022/07/11 01:26:47;;;;;;;0.75;0.10;;;22.00;94.30;;;;;;5029251;28;20025;-73
2022/07/11 01:29:15;;;;;;;0.90;0.15;;;23.00;93.90;;;;;;5039860;28;20024;-73
2022/07/11 01:31:43;;;;;;;0.80;0.10;;;23.60;91.70;;;;;;5036980;28;20451;-73
2022/07/11 01:34:11;;;;;;;0.55;0.17;;;23.70;91.80;;;;;;5032158;28;20970;-72
2022/07/11 01:36:39;;;;;;;3.75;0.30;;;23.10;91.30;;;;;;5030610;28;20040;-72
2022/07/11 01:39:07;;;;;;;0.63;0.20;;;22.60;92.30;;;;;;5054865;28;20032;-73
2022/07/11 01:41:34;;;;;;;1.13;0.20;;;22.30;92.60;;;;;;5030449;28;20101;-73
2022/07/11 01:44:01;;;;;;;1.50;0.35;;;23.00;93.10;;;;;;5033987;28;20033;-75
2022/07/11 01:46:29;;;;;;;2.05;0.63;;;23.80;92.00;;;;;;5034885;28;20029;-75
2022/07/11 01:48:56;;;;;;;1.30;0.40;;;24.90;90.40;;;;;;5057671;28;20044;-74
2022/07/11 01:51:24;;;;;;;1.73;0.20;;;25.20;91.40;;;;;;5029626;28;20072;-75
2022/07/11 01:53:54;;;;;;;3.42;0.30;;;25.70;88.90;;;;;;5042979;28;20040;-74
2022/07/11 01:56:22;;;;;;;0.82;0.15;;;25.70;90.00;;;;;;5040816;28;20119;-74
2022/07/11 01:58:49;;;;;;;1.17;0.30;;;25.70;88.20;;;;;;5054339;28;20054;-74
2022/07/11 02:01:17;;;;;;;0.90;0.17;;;25.60;90.00;;;;;;5036367;28;20033;-74
2022/07/11 02:03:44;;;;;;;1.65;0.47;;;25.50;89.00;;;;;;5044166;28;20451;-75
2022/07/11 02:06:12;;;;;;;0.32;0.10;;;25.50;88.70;;;;;;5050320;28;20769;-75
2022/07/11 02:08:39;;;;;;;0.43;0.20;;;25.90;86.80;;;;;;5051535;28;20111;-76
2022/07/11 02:11:07;;;;;;;0.65;0.10;;;26.00;87.90;;;;;;5041273;28;20033;-74
2022/07/11 02:13:34;;;;;;;1.55;0.30;;;24.60;90.10;;;;;;5032445;28;20108;-75
2022/07/11 02:16:02;;;;;;;0.93;0.25;;;23.30;90.70;;;;;;5041987;28;20408;-74
2022/07/11 02:18:30;;;;;;;2.78;0.20;;;23.70;90.00;;;;;;5040100;28;20029;-75
2022/07/11 02:20:57;;;;;;;0.98;0.20;;;24.40;90.10;;;;;;5040927;28;20537;-75
2022/07/11 02:23:24;;;;;;;0.50;0.10;;;24.60;88.90;;;;;;5031055;28;20032;-74
2022/07/11 02:25:53;;;;;;;1.88;0.20;;;24.70;90.10;;;;;;5045906;28;20028;-73
2022/07/11 02:28:20;;;;;;;0.98;0.60;;;25.10;90.40;;;;;;5065188;28;20090;-75
2022/07/11 02:30:48;;;;;;;2.75;0.30;;;25.10;87.10;;;;;;5031989;28;20037;-73
2022/07/11 02:33:15;;;;;;;0.55;0.10;;;25.20;88.80;;;;;;5051097;28;20121;-73
2022/07/11 02:35:45;;;;;;;1.55;0.25;;;24.70;87.70;;;;;;5040797;28;20038;-73
2022/07/11 02:38:14;;;;;;;1.17;0.30;;;23.20;89.60;;;;;;5033248;28;20459;-73
2022/07/11 02:40:42;;;;;;;2.33;0.30;;;21.90;90.90;;;;;;5035947;28;20044;-72
2022/07/11 02:43:09;;;;;;;1.30;0.90;;;21.40;91.80;;;;;;5041592;28;20414;-73
2022/07/11 02:45:36;;;;;;;1.83;0.30;;;20.90;93.10;;;;;;5045773;28;20467;-74
2022/07/11 02:48:04;;;;;;;1.13;0.20;;;20.70;93.00;;;;;;5053157;28;20501;-72
2022/07/11 02:50:32;;;;;;;1.25;0.40;;;20.40;93.50;;;;;;5046927;28;20059;-73
2022/07/11 02:52:59;;;;;;;1.27;0.20;;;21.00;93.50;;;;;;5051557;28;20081;-74
2022/07/11 02:55:27;;;;;;;0.30;0.20;;;21.60;92.60;;;;;;5038782;28;20052;-73
2022/07/11 02:57:54;;;;;;;0.85;0.13;;;21.50;93.00;;;;;;5033223;28;20051;-74
2022/07/11 03:00:21;;;;;;;2.15;0.30;;;20.60;93.10;;;;;;5032801;28;20111;-73
2022/07/11 03:02:49;;;;;;;0.98;0.25;;;20.60;93.50;;;;;;5042815;28;20466;-73
2022/07/11 03:05:16;;;;;;;1.77;0.10;;;20.30;93.00;;;;;;5044326;28;20036;-72
2022/07/11 03:07:43;;;;;;;0.82;0.43;;;20.40;93.40;;;;;;5048624;28;20376;-74
2022/07/11 03:10:11;;;;;;;0.90;0.20;;;19.90;93.10;;;;;;5042965;28;20032;-72
2022/07/11 03:12:39;;;;;;;3.85;0.22;;;19.30;93.40;;;;;;5053629;28;20028;-72
2022/07/11 03:15:07;;;;;;;2.63;0.20;;;18.90;94.90;;;;;;5045114;28;20087;-73
2022/07/11 03:17:38;;;;;;;0.40;0.17;;;18.70;94.70;;;;;;5052257;28;20017;-74
2022/07/11 03:20:07;;;;;;;0.98;0.32;;;18.60;96.00;;;;;;5037702;28;20168;-74
2022/07/11 03:22:34;;;;;;;0.70;0.08;;;19.40;94.20;;;;;;5041920;28;20043;-76
2022/07/11 03:25:05;;;;;;;0.38;0.10;;;20.10;94.30;;;;;;5045077;28;20523;-72
2022/07/11 03:27:33;;;;;;;1.17;0.20;;;20.40;93.30;;;;;;5039123;28;20463;-73
2022/07/11 03:30:00;;;;;;;0.55;0.10;;;20.50;91.90;;;;;;5035221;28;20021;-73
2022/07/11 03:32:27;;;;;;;0.77;0.10;;;20.30;91.70;;;;;;5030468;28;20049;-73
2022/07/11 03:37:40;;;;;;;2.00;0.50;;;19.80;92.10;;;;;;5031001;28;20045;-74
2022/07/11 03:40:08;;;;;;;0.52;0.20;;;19.80;92.60;;;;;;5031597;28;20040;-74
2022/07/11 03:42:36;;;;;;;0.85;0.10;;;19.70;93.00;;;;;;5034516;28;20037;-76
2022/07/11 03:45:03;;;;;;;1.13;0.28;;;19.50;93.60;;;;;;5032017;28;20109;-74
2022/07/11 03:47:32;;;;;;;1.05;0.50;;;19.50;93.30;;;;;;5031923;28;20044;-73
2022/07/11 03:50:00;;;;;;;3.13;0.30;;;19.30;95.60;;;;;;5036082;28;20532;-74
2022/07/11 03:52:27;;;;;;;2.72;0.30;;;18.80;97.20;;;;;;5054473;28;20044;-74
2022/07/11 03:54:54;;;;;;;5.10;0.60;;;18.50;97.50;;;;;;5046546;28;20166;-74
2022/07/11 03:57:22;;;;;;;2.38;0.20;;;18.20;98.20;;;;;;5067281;28;20029;-75
2022/07/11 03:59:49;;;;;;;0.90;0.20;;;17.90;98.50;;;;;;5046686;28;20029;-75
2022/07/11 04:02:16;;;;;;;2.17;1.13;;;17.80;98.80;;;;;;5053426;28;20025;-73
2022/07/11 04:04:44;;;;;;;1.98;0.70;;;17.60;99.30;;;;;;5053676;28;20028;-75
2022/07/11 04:07:11;;;;;;;1.25;0.52;;;17.30;99.50;;;;;;5046767;28;20024;-74
2022/07/11 04:09:38;;;;;;;2.15;0.55;;;17.20;99.90;;;;;;5039565;28;20040;-75
2022/07/11 04:12:06;;;;;;;2.25;0.47;;;17.10;99.90;;;;;;5046996;28;20033;-74
2022/07/11 04:14:33;;;;;;;2.22;0.30;;;17.00;99.90;;;;;;5052052;28;20167;-74
2022/07/11 04:17:01;;;;;;;1.48;0.30;;;16.90;99.90;;;;;;5043676;28;20099;-75
2022/07/11 04:19:28;;;;;;;0.30;0.20;;;16.70;99.90;;;;;;5041735;28;20040;-74
2022/07/11 04:21:56;;;;;;;0.75;0.50;;;16.60;99.90;;;;;;5048500;28;20041;-73
2022/07/11 04:24:23;;;;;;;3.58;0.55;;;16.50;99.90;;;;;;5048651;28;20051;-76
2022/07/11 04:26:50;;;;;;;2.55;0.30;;;16.50;99.90;;;;;;5033835;28;20446;-72
2022/07/11 04:29:18;;;;;;;1.35;0.35;;;16.50;99.90;;;;;;5047426;28;20367;-74
2022/07/11 04:31:45;;;;;;;0.73;0.50;;;16.50;99.90;;;;;;5061428;28;20025;-77
2022/07/11 04:34:13;;;;;;;3.50;0.20;;;16.50;99.90;;;;;;5053167;28;20044;-74
2022/07/11 04:36:41;;;;;;;2.15;0.32;;;16.40;99.90;;;;;;5050882;28;20390;-72
2022/07/11 04:39:08;;;;;;;1.50;0.25;;;16.40;99.90;;;;;;5058954;28;20176;-73
2022/07/11 04:41:35;;;;;;;3.67;0.68;;;16.40;99.90;;;;;;5031448;28;20102;-73
2022/07/11 04:44:03;;;;;;;0.80;0.25;;;16.20;99.90;;;;;;5034738;28;20028;-74
2022/07/11 04:46:31;;;;;;;1.35;0.40;;;16.10;99.90;;;;;;5030101;28;20032;-73
2022/07/11 04:48:59;;;;;;;3.03;0.65;;;16.10;99.90;;;;;;5028356;28;20030;-72
2022/07/11 04:51:26;;;;;;;1.05;0.17;;;16.10;99.90;;;;;;5029266;28;20897;-73
2022/07/11 04:53:54;;;;;;;3.13;0.30;;;16.10;99.90;;;;;;5030765;28;20166;-74
2022/07/11 04:56:21;;;;;;;0.30;0.10;;;16.10;99.90;;;;;;5032678;28;20112;-75
2022/07/11 04:58:49;;;;;;;2.22;0.20;;;16.20;99.90;;;;;;5032452;28;20083;-74
2022/07/11 05:01:17;;;;;;;2.33;0.30;;;16.20;99.90;;;;;;5032628;28;20034;-72
2022/07/11 05:03:45;;;;;;;1.13;0.20;;;16.30;99.90;;;;;;5030834;28;20160;-72
2022/07/11 05:06:12;;;;;;;4.47;1.20;;;16.40;99.90;;;;;;5029877;28;20644;-73
2022/07/11 05:08:39;;;;;;;1.70;0.30;;;16.30;99.90;;;;;;5037891;28;20540;-73
2022/07/11 05:11:07;;;;;;;2.80;1.25;;;16.40;99.90;;;;;;5035142;28;20037;-73
2022/07/11 05:13:34;;;;;;;1.95;0.40;;;16.40;99.90;;;;;;5043081;28;20438;-73
2022/07/11 05:16:01;;;;;;;0.65;0.15;;;16.50;99.90;;;;;;5029849;28;20048;-74
2022/07/11 05:18:29;;;;;;;1.60;0.30;;;16.50;99.90;;;;;;5036646;28;20032;-73
2022/07/11 05:20:58;;;;;;;0.47;0.20;;;16.40;99.90;;;;;;5033514;28;20390;-73
2022/07/11 05:23:25;;;;;;;0.77;0.30;;;16.40;99.90;;;;;;5040153;28;20428;-74
2022/07/11 05:25:53;;;;;;;2.85;0.32;;;16.40;99.90;;;;;;5039068;28;20108;-74
2022/07/11 05:28:20;;;;;;;3.03;0.52;;;16.40;99.90;;;;;;5038777;28;20117;-73
2022/07/11 05:30:47;;;;;;;1.38;0.30;;;16.40;99.90;;;;;;5032836;28;20104;-73
2022/07/11 05:33:15;;;;;;;1.17;0.20;;;16.40;99.90;;;;;;5030147;28;20117;-74
2022/07/11 05:35:42;;;;;;;1.80;0.43;;;16.40;99.90;;;;;;5031612;28;20033;-74
2022/07/11 05:38:09;;;;;;;1.27;0.20;;;16.40;99.90;;;;;;5029546;28;20022;-74
2022/07/11 05:40:37;;;;;;;2.45;0.80;;;16.40;99.90;;;;;;5037699;28;20032;-73
2022/07/11 05:43:04;;;;;;;3.42;0.40;;;16.40;99.90;;;;;;5039637;28;20037;-74
2022/07/11 05:45:32;;;;;;;1.27;0.30;;;16.30;99.90;;;;;;5029509;28;20590;-73
2022/07/11 05:47:59;;;;;;;0.43;0.20;;;16.20;99.90;;;;;;5034423;28;20056;-72
2022/07/11 05:50:28;;;;;;;0.60;0.20;;;16.20;99.90;;;;;;5010608;28;20090;-74
2022/07/11 05:52:57;;;;;;;1.85;0.28;;;16.20;99.90;;;;;;5034402;28;20060;-73
2022/07/11 05:55:24;;;;;;;1.73;0.40;;;16.20;99.90;;;;;;5051489;28;20044;-74
2022/07/11 05:57:52;;;;;;;0.80;0.35;;;16.20;99.90;;;;;;5045013;28;20052;-73
2022/07/11 06:00:21;;;;;;;0.82;0.30;;;16.10;99.90;;;;;;5033888;28;20029;-74
2022/07/11 06:02:48;;;;;;;1.42;0.45;;;16.00;99.90;;;;;;5030630;28;20116;-73
2022/07/11 06:05:16;;;;;;;2.92;0.32;;;16.00;99.90;;;;;;5056296;28;20138;-75
2022/07/11 06:10:28;;;;;;;2.38;0.47;;;15.90;99.90;;;;;;5052624;28;20036;-73
2022/07/11 06:12:56;;;;;;;0.93;0.40;;;15.80;99.90;;;;;;5040087;28;20040;-73
2022/07/11 06:15:23;;;;;;;2.20;0.57;;;15.70;99.90;;;;;;5045277;28;20071;-73
2022/07/11 06:17:51;;;;;;;0.90;0.65;;;15.70;99.90;;;;;;5072933;28;20021;-74
2022/07/11 06:20:19;;;;;;;2.17;0.30;;;15.60;99.90;;;;;;5061249;28;20028;-75
2022/07/11 06:22:47;;;;;;;1.38;0.50;;;15.40;99.90;;;;;;5024466;28;20076;-72
2022/07/11 06:25:14;;;;;;;2.67;0.35;;;15.30;99.90;;;;;;5033788;28;20075;-73
2022/07/11 06:27:41;;;;;;;3.83;0.30;;;15.30;99.90;;;;;;5043861;28;20196;-75
2022/07/11 06:30:09;;;;;;;1.40;0.82;;;15.30;99.90;;;;;;5051707;28;20036;-75
2022/07/11 06:32:36;;;;;;;3.78;0.60;;;15.20;99.90;;;;;;5046747;28;20029;-74
2022/07/11 06:35:04;;;;;;;2.60;0.60;;;15.20;99.90;;;;;;5038982;28;20035;-75
2022/07/11 06:37:32;;;;;;;3.13;0.73;;;15.10;99.90;;;;;;5052342;28;20036;-74
2022/07/11 06:39:59;;;;;;;1.40;0.43;;;15.00;99.90;;;;;;5044949;28;20018;-72
2022/07/11 06:42:27;;;;;;;2.60;0.60;;;14.90;99.90;;;;;;5033522;28;20314;-73
2022/07/11 06:44:54;;;;;;;1.85;0.60;;;14.90;99.90;;;;;;5032713;28;20030;-72
2022/07/11 06:47:22;;;;;;;1.23;0.68;;;14.80;99.90;;;;;;5037467;28;20029;-74
2022/07/11 06:49:49;;;;;;;1.77;0.77;;;14.70;99.90;;;;;;5045972;28;20030;-73
2022/07/11 06:52:16;;;;;;;3.83;0.80;;;14.70;99.90;;;;;;5041128;28;20036;-73
2022/07/11 06:54:43;;;;;;;2.65;0.90;;;14.50;99.90;;;;;;5036834;28;20048;-73
2022/07/11 06:57:11;;;;;;;3.45;0.80;;;14.50;99.90;;;;;;5036953;28;20044;-73
2022/07/11 06:59:38;;;;;;;2.22;0.85;;;14.40;99.90;;;;;;5050900;28;20026;-76
2022/07/11 07:02:06;;;;;;;2.78;1.58;;;14.30;99.90;;;;;;5058543;28;20112;-75
2022/07/11 07:04:34;;;;;;;5.60;1.85;;;14.20;99.90;;;;;;5049465;28;20101;-75
2022/07/11 07:07:01;;;;;;;3.13;2.20;;;14.20;99.90;;;;;;5035061;28;20092;-73
2022/07/11 07:09:29;;;;;;;2.95;1.25;;;14.20;99.90;;;;;;5037833;28;20126;-74
2022/07/11 07:11:57;;;;;;;5.40;1.23;;;14.10;99.90;;;;;;5032462;28;20024;-72
2022/07/11 07:14:25;;;;;;;6.07;1.40;;;14.00;99.90;;;;;;5033725;28;20332;-74
2022/07/11 07:16:52;;;;;;;4.05;1.95;;;13.90;99.90;;;;;;5029631;28;20059;-75
2022/07/11 07:19:20;;;;;;;7.10;1.98;;;13.90;99.90;;;;;;5031769;28;20413;-74
2022/07/11 07:21:48;;;;;;;7.57;2.55;;;13.80;99.90;;;;;;5031739;28;20036;-74
2022/07/11 07:24:15;;;;;;;5.30;1.55;;;13.70;99.90;;;;;;5032075;28;20044;-76
2022/07/11 07:26:42;;;;;;;6.22;1.83;;;13.70;99.90;;;;;;5031883;28;20144;-76
2022/07/11 07:29:10;;;;;;;5.93;2.33;;;13.60;99.90;;;;;;5031908;28;21124;-75
2022/07/11 07:31:37;;;;;;;2.35;1.00;;;13.60;99.90;;;;;;5032493;28;20483;-75
2022/07/11 07:34:04;;;;;;;7.78;1.70;;;13.60;99.90;;;;;;5031222;28;20025;-76
2022/07/11 07:36:32;;;;;;;3.30;0.80;;;13.50;99.90;;;;;;5032868;28;20398;-76
2022/07/11 07:39:00;;;;;;;3.42;1.35;;;13.50;99.90;;;;;;5031060;28;20056;-77
2022/07/11 07:41:28;;;;;;;3.00;0.88;;;13.40;99.90;;;;;;5032560;28;20989;-76
2022/07/11 07:43:55;;;;;;;3.15;1.00;;;13.40;99.90;;;;;;5030628;28;20332;-76
2022/07/11 07:46:22;;;;;;;3.40;1.38;;;13.30;99.90;;;;;;5032949;28;20478;-77
2022/07/11 07:48:50;;;;;;;3.00;1.27;;;13.30;99.90;;;;;;5041447;28;20040;-77
2022/07/11 07:51:17;;;;;;;2.83;1.00;;;13.30;99.90;;;;;;5034954;28;20103;-76
2022/07/11 07:53:44;;;;;;;7.80;1.40;;;13.20;99.90;;;;;;5035051;28;20048;-75
2022/07/11 07:56:12;;;;;;;3.03;1.20;;;13.20;99.90;;;;;;5034488;28;20041;-75
2022/07/11 07:58:39;;;;;;;5.35;1.88;;;13.20;99.90;;;;;;5030394;28;20061;-75
2022/07/11 08:03:56;;;;;;;3.88;1.67;;;13.10;99.90;;;;;;5043239;28;20141;-77
2022/07/11 08:06:27;;;;;;;5.13;1.40;;;13.10;99.90;;;;;;5035593;28;20050;-76
2022/07/11 08:08:55;;;;;;;2.50;1.30;;;13.00;99.90;;;;;;5034219;28;20344;-77
2022/07/11 08:11:22;;;;;;;5.57;2.85;;;13.00;99.90;;;;;;5034465;28;20025;-75
2022/07/11 08:13:49;;;;;;;5.32;1.30;;;13.00;99.90;;;;;;5037019;28;20036;-75
2022/07/11 08:16:17;;;;;;;5.30;1.40;;;12.90;99.90;;;;;;5039344;28;20125;-75
2022/07/11 08:18:44;;;;;;;10.90;1.58;;;12.80;99.90;;;;;;5031711;28;20509;-76
2022/07/11 08:21:12;;;;;;;4.50;1.60;;;12.80;99.90;;;;;;5030858;28;20030;-75
2022/07/11 08:23:39;;;;;;;2.80;1.25;;;12.70;99.90;;;;;;5036005;28;20036;-77
2022/07/11 08:26:07;;;;;;;2.78;1.50;;;12.70;99.90;;;;;;5036408;28;20112;-76
2022/07/11 08:28:34;;;;;;;5.85;2.03;;;12.60;99.90;;;;;;5034961;28;20123;-78
2022/07/11 08:31:01;;;;;;;5.97;2.90;;;12.60;99.90;;;;;;5031958;28;20084;-77
2022/07/11 08:33:29;;;;;;;6.15;2.67;;;12.60;99.90;;;;;;5036512;28;20041;-76
2022/07/11 08:35:56;;;;;;;7.63;3.05;;;12.50;99.90;;;;;;5036847;28;20078;-77
2022/07/11 08:38:23;;;;;;;4.65;2.53;;;12.50;99.90;;;;;;5031011;28;20065;-77
2022/07/11 08:40:51;;;;;;;4.70;2.60;;;12.50;99.90;;;;;;5034779;28;20049;-77
2022/07/11 08:43:23;;;;;;;6.13;2.88;;;12.40;99.90;;;;;;5039876;28;20037;-78
2022/07/11 08:45:52;;;;;;;7.25;3.33;;;12.30;99.90;;;;;;5038568;28;20484;-77
2022/07/11 08:48:21;;;;;;;6.80;3.80;;;12.30;99.90;;;;;;5031680;28;20167;-76
2022/07/11 08:50:57;;;;;;;7.05;4.18;;;12.20;99.90;;;;;;5085309;27;20502;-77
2022/07/11 08:53:24;;;;;;;4.50;2.70;;;12.10;99.90;;;;;;5064099;28;20074;-76
2022/07/11 08:55:52;;;;;;;4.13;2.78;;;12.00;99.90;;;;;;5060795;28;20021;-77
2022/07/11 08:58:19;;;;;;;8.38;3.65;;;12.00;99.90;;;;;;5067703;28;20031;-78
2022/07/11 09:00:46;;;;;;;10.15;4.55;;;11.90;99.90;;;;;;5056332;28;20108;-78
2022/07/11 09:03:17;;;;;;;7.60;3.90;;;11.90;99.90;;;;;;5063889;28;20418;-77
2022/07/11 09:05:46;;;;;;;8.13;3.53;;;11.80;99.90;;;;;;5046303;28;20128;-77
2022/07/11 09:08:13;;;;;;;7.30;3.25;;;11.70;99.90;;;;;;5047735;28;20108;-77
2022/07/11 09:10:41;;;;;;;9.05;3.00;;;11.70;99.90;;;;;;5057595;28;20044;-76
2022/07/11 09:13:14;;;;;;;8.60;3.65;;;11.70;99.90;;;;;;5065912;28;20025;-77
2022/07/11 09:15:44;;;;;;;10.77;3.92;;;11.60;99.90;;;;;;5051847;28;20064;-79
2022/07/11 09:18:36;;;;;;;9.77;5.00;;;11.60;99.90;;;;;;5047255;28;20075;-76
2022/07/11 09:26:42;;;;;;;9.93;6.10;;;11.60;99.90;;;;;;5065993;28;20054;-77
2022/07/11 09:29:15;;;;;;;11.30;5.72;;;11.60;99.90;;;;;;5060750;28;20040;-77
2022/07/11 09:31:47;;;;;;;12.57;7.25;;;11.60;99.90;;;;;;5048513;28;20056;-77
2022/07/11 09:34:17;;;;;;;14.30;6.47;;;11.60;99.90;;;;;;5065601;28;20033;-77
2022/07/11 09:36:55;;;;;;;14.35;5.28;;;11.50;99.90;;;;;;5064002;28;20494;-76
2022/07/11 09:39:25;;;;;;;7.22;4.47;;;11.50;99.90;;;;;;5055116;28;20040;-77
2022/07/11 09:41:53;;;;;;;6.45;3.88;;;11.50;99.90;;;;;;5044753;28;20037;-77
2022/07/11 09:44:28;;;;;;;7.32;5.10;;;11.50;99.90;;;;;;5059058;28;20047;-76
2022/07/11 09:46:57;;;;;;;11.65;5.47;;;11.50;99.90;;;;;;5055895;28;20036;-77
2022/07/11 09:49:33;;;;;;;11.45;5.85;;;11.50;99.90;;;;;;5045091;28;20056;-78
2022/07/11 09:52:12;;;;;;;19.70;6.35;;;11.50;99.90;;;;;;5065065;28;20025;-77
2022/07/11 09:54:56;;;;;;;11.07;5.63;;;11.50;99.90;;;;;;5058953;28;20067;-75
2022/07/11 09:57:34;;;;;;;12.95;7.70;;;11.50;99.90;;;;;;5050465;28;20390;-76
2022/07/11 10:00:04;;;;;;;19.48;9.55;;;11.60;99.90;;;;;;5063793;28;20096;-76
2022/07/11 10:02:32;;;;;;;17.45;8.50;;;11.50;99.90;;;;;;5052056;28;20440;-75
2022/07/11 10:05:01;;;;;;;16.50;7.07;;;11.50;99.90;;;;;;5044822;28;20025;-75
2022/07/11 10:07:29;;;;;;;13.15;6.53;;;11.50;99.90;;;;;;5045627;28;20446;-74
2022/07/11 10:10:01;;;;;;;11.20;5.13;;;11.50;99.90;;;;;;5047749;28;20369;-76
2022/07/11 10:12:31;;;;;;;9.90;6.80;;;11.50;99.90;;;;;;5038914;28;20029;-77
2022/07/11 10:15:06;;;;;;;9.93;5.43;;;11.50;99.90;;;;;;5044771;28;20120;-76
2022/07/11 10:17:43;;;;;;;8.37;5.43;;;11.40;99.90;;;;;;5044015;28;20460;-76
2022/07/11 10:20:28;;;;;;;9.40;4.60;;;11.50;99.90;;;;;;5038618;28;20028;-78
2022/07/11 10:23:15;;;;;;;8.15;4.38;;;11.50;99.90;;;;;;5039526;28;20022;-76
2022/07/11 10:26:00;;;;;;;8.25;4.90;;;11.40;99.90;;;;;;5038145;28;20021;-77
2022/07/11 10:28:37;;;;;;;6.07;3.95;;;11.40;99.90;;;;;;5051619;28;20118;-76
2022/07/11 10:31:17;;;;;;;9.68;4.63;;;11.40;99.90;;;;;;5035721;28;20116;-76
2022/07/11 10:34:05;;;;;;;8.63;4.05;;;11.40;99.90;;;;;;5046722;28;20029;-78
2022/07/11 10:36:40;;;;;;;9.07;3.95;;;11.40;99.90;;;;;;5049804;28;20036;-77
2022/07/11 10:39:29;;;;;;;7.00;4.13;;;11.40;99.90;;;;;;5036300;28;20117;-76
2022/07/11 10:41:58;;;;;;;8.20;4.80;;;11.30;99.90;;;;;;5041448;28;20052;-77
2022/07/11 10:44:48;;;;;;;13.20;4.75;;;11.30;99.90;;;;;;5045746;28;20030;-77
2022/07/11 10:47:40;;;;;;;15.05;5.70;;;11.30;99.90;;;;;;5041776;28;20029;-77
2022/07/11 10:50:38;;;;;;;6.40;3.75;;;11.30;99.90;;;;;;5049518;28;20437;-77
2022/07/11 10:53:11;;;;;;;8.10;3.47;;;11.30;99.90;;;;;;5041647;28;20033;-76
2022/07/11 10:55:53;;;;;;;5.32;3.13;;;11.20;99.90;;;;;;5044422;28;20036;-77
2022/07/11 10:58:24;;;;;;;7.15;3.03;;;11.20;99.90;;;;;;5051798;28;20029;-77
2022/07/11 11:01:14;;;;;;;10.02;5.10;;;11.10;99.90;;;;;;5048765;28;20025;-78
2022/07/11 11:03:43;;;;;;;6.70;4.72;;;11.10;99.90;;;;;;5046841;28;20053;-76
2022/07/11 11:06:12;;;;;;;5.40;3.85;;;11.10;99.90;;;;;;5048501;28;20387;-77
2022/07/11 11:08:44;;;;;;;7.97;5.20;;;11.00;99.90;;;;;;5042155;28;20029;-77
2022/07/11 11:11:21;;;;;;;7.65;4.93;;;11.00;99.90;;;;;;5050186;28;20033;-77
2022/07/11 11:14:27;;;;;;;13.27;4.72;;;11.00;99.90;;;;;;5051048;28;20028;-77
2022/07/11 11:16:55;;;;;;;7.87;4.27;;;10.90;99.90;;;;;;5049616;28;20107;-77
2022/07/11 11:19:47;;;;;;;5.80;3.67;;;10.90;99.90;;;;;;5049723;28;20379;-78
2022/07/11 11:22:18;;;;;;;6.22;4.07;;;10.80;99.90;;;;;;5048029;28;20037;-76
2022/07/11 11:24:54;;;;;;;4.78;3.67;;;10.80;99.90;;;;;;5047098;28;20094;-76
2022/07/11 11:27:26;;;;;;;10.25;5.25;;;10.70;99.90;;;;;;5050326;28;20033;-76
2022/07/11 11:29:55;;;;;;;10.68;5.93;;;10.60;99.90;;;;;;5049314;28;20048;-76
2022/07/11 11:32:30;;;;;;;10.48;6.60;;;10.60;99.90;;;;;;5049448;28;20436;-75
2022/07/11 11:34:59;;;;;;;5.60;4.75;;;10.60;99.90;;;;;;5048427;28;20062;-75
2022/07/11 11:37:26;;;;;;;5.13;3.45;;;10.60;99.90;;;;;;5050395;28;20025;-76
2022/07/11 11:40:00;;;;;;;4.72;2.42;;;10.60;99.90;;;;;;5048365;28;20712;-77
2022/07/11 11:42:30;;;;;;;7.35;2.00;;;10.60;99.90;;;;;;5049273;28;20033;-76
2022/07/11 11:45:07;;;;;;;4.35;1.50;;;10.60;99.90;;;;;;5047150;28;20094;-77
2022/07/11 11:47:37;;;;;;;1.50;1.20;;;10.60;99.90;;;;;;5043830;28;20473;-76
2022/07/11 11:50:09;;;;;;;2.15;1.50;;;10.60;99.90;;;;;;5037423;28;20060;-77
2022/07/11 11:52:37;;;;;;;6.80;3.25;;;10.60;99.90;;;;;;5031492;28;20444;-77
2022/07/11 11:55:07;;;;;;;53.05;34.13;;;10.50;99.90;;;;;;5038026;28;20512;-79
2022/07/11 11:57:35;;;;;;;55.20;35.30;;;10.50;99.90;;;;;;5031171;28;20022;-76
2022/07/11 12:00:03;;;;;;;42.67;30.05;;;10.40;99.90;;;;;;5035514;28;20357;-76
2022/07/11 12:02:31;;;;;;;39.67;27.15;;;10.40;99.90;;;;;;5030681;28;20444;-76
2022/07/11 12:04:59;;;;;;;22.52;14.80;;;10.40;99.90;;;;;;5048394;28;20040;-76
2022/07/11 12:07:29;;;;;;;12.48;7.97;;;10.30;99.90;;;;;;5050607;28;20024;-78
2022/07/11 12:09:59;;;;;;;5.70;4.20;;;10.30;99.90;;;;;;5048034;28;20050;-77
2022/07/11 12:12:52;;;;;;;5.00;2.70;;;10.30;99.90;;;;;;5049765;28;20761;-78
2022/07/11 12:18:20;;;;;;;3.03;1.95;;;10.30;99.90;;;;;;5032639;28;20083;-77
2022/07/11 12:20:47;;;;;;;2.80;1.77;;;10.30;99.90;;;;;;5043608;28;20106;-77
2022/07/11 12:23:18;;;;;;;1.63;1.10;;;10.20;99.90;;;;;;5049934;28;20032;-76
2022/07/11 12:25:47;;;;;;;4.93;1.60;;;10.20;99.90;;;;;;5048299;28;20035;-76
2022/07/11 12:28:15;;;;;;;1.70;0.80;;;10.20;99.90;;;;;;5049979;28;20021;-76
2022/07/11 12:30:42;;;;;;;2.00;1.23;;;10.20;99.90;;;;;;5047615;28;20045;-77
2022/07/11 12:33:14;;;;;;;4.40;1.23;;;10.20;99.90;;;;;;5042290;28;20197;-75
2022/07/11 12:36:14;;;;;;;4.25;1.10;;;10.20;99.90;;;;;;5040427;28;20033;-76
2022/07/11 12:38:52;;;;;;;4.28;1.83;;;10.20;99.90;;;;;;5032858;28;20462;-75
2022/07/11 12:41:19;;;;;;;1.90;1.30;;;10.10;99.90;;;;;;5048213;28;20114;-77
2022/07/11 12:46:34;;;;;;;3.08;1.60;;;10.10;99.90;;;;;;5031787;28;20028;-77
2022/07/11 12:49:06;;;;;;;2.03;1.00;;;10.00;99.90;;;;;;5034008;28;20085;-77
2022/07/11 12:51:39;;;;;;;4.85;2.25;;;10.00;99.90;;;;;;5032637;28;20555;-77
2022/07/11 12:54:11;;;;;;;3.47;1.30;;;9.90;99.90;;;;;;5046959;28;20476;-77
2022/07/11 12:56:40;;;;;;;3.60;1.80;;;9.90;99.90;;;;;;5048000;28;20057;-77
2022/07/11 12:59:19;;;;;;;4.00;1.58;;;9.90;99.90;;;;;;5029867;28;20041;-77
2022/07/11 13:02:03;;;;;;;3.17;1.73;;;9.80;99.90;;;;;;5049157;28;20032;-77
2022/07/11 13:04:50;;;;;;;6.18;1.90;;;9.80;99.90;;;;;;5038781;28;20078;-76
2022/07/11 13:10:19;;;;;;;4.95;2.22;;;9.80;99.90;;;;;;5046047;28;20067;-77
2022/07/11 13:12:49;;;;;;;5.68;2.35;;;9.80;99.90;;;;;;5048825;28;20020;-76
2022/07/11 13:15:18;;;;;;;3.38;2.40;;;9.80;99.90;;;;;;5046499;28;20043;-76
2022/07/11 13:17:49;;;;;;;4.90;2.45;;;9.80;99.90;;;;;;5049470;28;20025;-79
2022/07/11 13:20:22;;;;;;;6.18;3.13;;;9.70;99.90;;;;;;5039171;28;20104;-76